Time;durP1;ratioP1;P1;durP2;ratioP2;P2;SDS_P1;SDS_P2;PMS_P1;PMS_P2;Temp;Humidity;BMP_temperature;BMP_pressure;BME280_temperature;BME280_humidity;BME280_pressure;Samples;Min_cycle;Max_cycle;Signal;HPM_P1;HPM_P2
2021/10/30 00:01:09;;;;;;;3.17;1.63;;;12.10;99.90;;;;;;5040303;28;20030;-64
2021/10/30 00:03:35;;;;;;;6.90;2.50;;;12.20;99.90;;;;;;5042289;28;20021;-64
2021/10/30 00:06:00;;;;;;;4.85;1.70;;;12.10;99.90;;;;;;5040270;28;20034;-63
2021/10/30 00:08:28;;;;;;;3.55;1.77;;;12.10;99.90;;;;;;5040795;28;20117;-65
2021/10/30 00:10:56;;;;;;;6.30;2.30;;;12.00;99.90;;;;;;5041201;28;20135;-62
2021/10/30 00:13:22;;;;;;;5.03;2.13;;;12.00;99.90;;;;;;5040692;28;20075;-63
2021/10/30 00:15:48;;;;;;;4.40;1.73;;;11.90;99.90;;;;;;5041519;28;20029;-63
2021/10/30 00:18:13;;;;;;;4.68;2.20;;;11.90;99.90;;;;;;5039782;28;20442;-64
2021/10/30 00:20:39;;;;;;;4.68;2.35;;;11.90;99.90;;;;;;5042171;28;20388;-63
2021/10/30 00:23:04;;;;;;;6.93;2.45;;;11.90;99.90;;;;;;5042868;28;20028;-64
2021/10/30 00:25:30;;;;;;;8.25;1.90;;;11.90;99.90;;;;;;5039360;28;20501;-65
2021/10/30 00:27:56;;;;;;;6.38;2.45;;;11.90;99.90;;;;;;5024008;28;20120;-65
2021/10/30 00:30:21;;;;;;;4.72;1.88;;;11.80;99.90;;;;;;5034462;28;20041;-63
2021/10/30 00:32:47;;;;;;;7.20;2.90;;;11.90;99.90;;;;;;5041490;28;20552;-63
2021/10/30 00:35:13;;;;;;;4.80;1.60;;;11.80;99.90;;;;;;5042216;28;20437;-63
2021/10/30 00:37:39;;;;;;;4.25;2.00;;;11.80;99.90;;;;;;5038563;28;20040;-64
2021/10/30 00:40:06;;;;;;;4.05;2.17;;;11.80;99.90;;;;;;5041194;28;20033;-65
2021/10/30 00:42:31;;;;;;;4.80;1.92;;;11.80;99.90;;;;;;5021511;28;20028;-64
2021/10/30 00:44:57;;;;;;;4.13;2.15;;;11.80;99.90;;;;;;5040612;28;20068;-63
2021/10/30 00:47:23;;;;;;;6.40;2.10;;;11.80;99.90;;;;;;5040613;28;20032;-63
2021/10/30 00:49:48;;;;;;;5.72;2.35;;;11.80;99.90;;;;;;5045528;28;20562;-63
2021/10/30 00:52:14;;;;;;;4.18;2.03;;;11.80;99.90;;;;;;5039492;28;20033;-63
2021/10/30 00:54:44;;;;;;;5.82;2.50;;;11.80;99.90;;;;;;5042727;28;20033;-63
2021/10/30 00:57:11;;;;;;;4.65;2.35;;;11.80;99.90;;;;;;5042235;28;20113;-62
2021/10/30 00:59:37;;;;;;;4.95;2.58;;;11.80;99.90;;;;;;5043649;28;20029;-62
2021/10/30 01:02:04;;;;;;;6.32;2.40;;;11.80;99.90;;;;;;5042090;28;20041;-64
2021/10/30 01:04:30;;;;;;;7.93;2.42;;;11.80;99.90;;;;;;5038847;28;20586;-63
2021/10/30 01:06:58;;;;;;;4.65;2.13;;;11.70;99.90;;;;;;5040026;28;20042;-64
2021/10/30 01:09:24;;;;;;;4.22;2.00;;;11.80;99.90;;;;;;5038341;28;20079;-62
2021/10/30 01:11:52;;;;;;;6.22;3.42;;;11.70;99.90;;;;;;5022941;28;20396;-64
2021/10/30 01:14:21;;;;;;;7.28;2.40;;;11.70;99.90;;;;;;5038343;28;20381;-62
2021/10/30 01:16:57;;;;;;;4.10;1.63;;;11.80;99.90;;;;;;5040906;28;20048;-63
2021/10/30 01:19:23;;;;;;;4.72;2.50;;;11.90;99.90;;;;;;5038867;28;20037;-63
2021/10/30 01:21:49;;;;;;;4.82;2.42;;;11.90;99.90;;;;;;5040648;28;20036;-65
2021/10/30 01:24:15;;;;;;;5.72;2.42;;;12.00;99.90;;;;;;5022293;28;20037;-67
2021/10/30 01:26:40;;;;;;;4.05;2.00;;;12.00;99.90;;;;;;5034975;28;20037;-63
2021/10/30 01:29:06;;;;;;;3.47;1.80;;;12.00;99.90;;;;;;5053264;28;20028;-63
2021/10/30 01:31:32;;;;;;;5.13;2.40;;;12.10;99.90;;;;;;5018891;28;20404;-64
2021/10/30 01:34:02;;;;;;;4.90;2.45;;;12.10;99.90;;;;;;5039245;28;20043;-62
2021/10/30 01:36:28;;;;;;;7.68;2.45;;;12.20;99.90;;;;;;5039511;28;20541;-63
2021/10/30 01:38:53;;;;;;;5.60;2.03;;;12.30;99.90;;;;;;5039951;28;20112;-64
2021/10/30 01:41:24;;;;;;;5.15;2.05;;;12.30;99.90;;;;;;5038590;28;20041;-63
2021/10/30 01:43:51;;;;;;;2.85;1.83;;;12.30;99.90;;;;;;5040137;28;20048;-64
2021/10/30 01:46:18;;;;;;;6.38;1.92;;;12.30;99.90;;;;;;5020194;28;20042;-63
2021/10/30 01:48:44;;;;;;;4.32;2.03;;;12.20;99.90;;;;;;5037273;28;20040;-63
2021/10/30 01:51:09;;;;;;;3.72;1.98;;;12.20;99.90;;;;;;5041821;28;20053;-64
2021/10/30 01:53:35;;;;;;;6.35;2.25;;;12.20;99.90;;;;;;5040262;28;20445;-63
2021/10/30 01:56:02;;;;;;;4.47;2.10;;;12.20;99.90;;;;;;5038779;28;20416;-64
2021/10/30 01:58:27;;;;;;;2.65;1.50;;;12.10;99.90;;;;;;5039252;28;20030;-62
2021/10/30 02:00:55;;;;;;;6.38;2.22;;;12.10;99.90;;;;;;5041299;28;20064;-65
2021/10/30 02:03:23;;;;;;;3.55;1.90;;;12.00;99.90;;;;;;5039617;28;20021;-63
2021/10/30 02:05:52;;;;;;;6.22;2.20;;;11.90;99.90;;;;;;5038473;28;20022;-64
2021/10/30 02:08:19;;;;;;;4.47;2.13;;;11.90;99.90;;;;;;5039655;28;20048;-63
2021/10/30 02:10:45;;;;;;;4.03;2.00;;;11.80;99.90;;;;;;5037818;28;20352;-62
2021/10/30 02:13:11;;;;;;;6.13;2.25;;;11.80;99.90;;;;;;5041242;28;20123;-63
2021/10/30 02:15:38;;;;;;;10.05;2.25;;;11.80;99.90;;;;;;5036782;28;20116;-63
2021/10/30 02:18:04;;;;;;;4.53;2.50;;;11.80;99.90;;;;;;5040373;28;20026;-62
2021/10/30 02:20:30;;;;;;;7.18;2.60;;;11.70;99.90;;;;;;5036179;28;20038;-63
2021/10/30 02:22:56;;;;;;;4.32;2.33;;;11.70;99.90;;;;;;5043148;28;20182;-64
2021/10/30 02:25:22;;;;;;;4.88;2.90;;;11.70;99.90;;;;;;5042766;28;20033;-64
2021/10/30 02:27:48;;;;;;;3.80;1.98;;;11.80;99.90;;;;;;5042538;28;20058;-64
2021/10/30 02:30:14;;;;;;;4.15;1.70;;;11.80;99.90;;;;;;5044445;28;20418;-64
2021/10/30 02:32:41;;;;;;;3.53;2.03;;;11.90;99.90;;;;;;5040791;28;20025;-63
2021/10/30 02:35:08;;;;;;;3.65;1.95;;;11.80;99.90;;;;;;5044960;28;20021;-65
2021/10/30 02:37:33;;;;;;;5.25;2.30;;;11.90;99.90;;;;;;5039530;28;20033;-64
2021/10/30 02:39:59;;;;;;;5.68;2.50;;;11.90;99.90;;;;;;5041852;28;20048;-63
2021/10/30 02:42:24;;;;;;;3.17;2.30;;;11.80;99.90;;;;;;5042958;28;20029;-64
2021/10/30 02:44:50;;;;;;;4.07;2.20;;;11.80;99.90;;;;;;5042728;28;20025;-63
2021/10/30 02:47:16;;;;;;;4.15;2.15;;;11.80;99.90;;;;;;5041490;28;20037;-64
2021/10/30 02:49:41;;;;;;;5.28;2.90;;;11.90;99.90;;;;;;5050609;28;20121;-63
2021/10/30 02:52:07;;;;;;;7.47;2.30;;;11.90;99.90;;;;;;5041323;28;20084;-64
2021/10/30 02:54:33;;;;;;;4.85;2.10;;;12.00;99.90;;;;;;5026152;28;20029;-65
2021/10/30 02:56:59;;;;;;;4.47;2.60;;;12.00;99.90;;;;;;5041328;28;20041;-64
2021/10/30 02:59:24;;;;;;;10.43;3.78;;;12.10;99.90;;;;;;5044631;28;20503;-65
2021/10/30 03:01:50;;;;;;;3.70;2.45;;;12.10;99.90;;;;;;5040669;28;20029;-62
2021/10/30 03:04:16;;;;;;;8.38;2.55;;;12.10;99.90;;;;;;5041711;28;20080;-62
2021/10/30 03:06:42;;;;;;;3.75;2.25;;;12.10;99.90;;;;;;5042866;28;20116;-63
2021/10/30 03:09:07;;;;;;;5.38;2.50;;;12.20;99.90;;;;;;5040045;28;20109;-63
2021/10/30 03:11:33;;;;;;;3.78;2.15;;;12.10;99.90;;;;;;5043096;28;20033;-65
2021/10/30 03:13:59;;;;;;;4.60;2.30;;;12.10;99.90;;;;;;5041409;28;20038;-62
2021/10/30 03:16:24;;;;;;;5.78;2.00;;;12.10;99.90;;;;;;5042579;28;20056;-63
2021/10/30 03:18:50;;;;;;;6.88;1.92;;;12.10;99.90;;;;;;5041653;28;20037;-63
2021/10/30 03:21:16;;;;;;;4.45;2.15;;;12.00;99.90;;;;;;5041323;28;20021;-65
2021/10/30 03:23:41;;;;;;;3.60;2.00;;;12.00;99.90;;;;;;5043069;28;20443;-64
2021/10/30 03:26:07;;;;;;;5.18;2.47;;;11.90;99.90;;;;;;5040341;28;20095;-65
2021/10/30 03:28:32;;;;;;;5.55;2.47;;;11.90;99.90;;;;;;5038957;28;20029;-63
2021/10/30 03:30:58;;;;;;;5.40;2.53;;;11.90;99.90;;;;;;5043604;28;20034;-65
2021/10/30 03:33:24;;;;;;;5.70;2.10;;;11.80;99.90;;;;;;5040446;28;20021;-64
2021/10/30 03:35:50;;;;;;;6.53;3.22;;;11.80;99.90;;;;;;5041752;28;20037;-64
2021/10/30 03:38:15;;;;;;;6.95;2.78;;;11.90;99.90;;;;;;5043053;28;20025;-70
2021/10/30 03:40:41;;;;;;;5.15;2.15;;;11.90;99.90;;;;;;5042408;28;20171;-65
2021/10/30 03:43:07;;;;;;;4.63;2.40;;;11.90;99.90;;;;;;5040517;28;20026;-63
2021/10/30 03:45:33;;;;;;;11.02;2.65;;;11.90;99.90;;;;;;5042851;28;20112;-65
2021/10/30 03:48:03;;;;;;;6.13;2.88;;;11.90;99.90;;;;;;5039888;28;20041;-64
2021/10/30 03:50:28;;;;;;;6.25;3.22;;;11.90;99.90;;;;;;5040959;28;20039;-65
2021/10/30 03:52:54;;;;;;;6.97;3.20;;;11.90;99.90;;;;;;5042587;28;20037;-64
2021/10/30 03:55:20;;;;;;;5.60;3.03;;;11.90;99.90;;;;;;5023079;28;20108;-65
2021/10/30 03:57:45;;;;;;;5.20;2.80;;;11.90;99.90;;;;;;5040696;28;20034;-65
2021/10/30 04:00:11;;;;;;;6.28;2.70;;;11.90;99.90;;;;;;5029236;28;20025;-64
2021/10/30 04:02:37;;;;;;;5.10;3.00;;;11.90;99.90;;;;;;5024034;28;20559;-70
2021/10/30 04:05:03;;;;;;;6.72;2.72;;;11.90;99.90;;;;;;5039771;28;20124;-65
2021/10/30 04:07:29;;;;;;;4.07;2.35;;;11.90;99.90;;;;;;5041772;28;20562;-66
2021/10/30 04:09:54;;;;;;;8.50;3.00;;;11.90;99.90;;;;;;5040140;28;20034;-62
2021/10/30 04:12:20;;;;;;;5.45;2.60;;;11.90;99.90;;;;;;5041305;28;20034;-62
2021/10/30 04:14:45;;;;;;;4.60;2.42;;;11.90;99.90;;;;;;5040709;28;20033;-64
2021/10/30 04:17:11;;;;;;;5.18;2.90;;;11.90;99.90;;;;;;5040545;28;20042;-64
2021/10/30 04:19:36;;;;;;;5.80;2.63;;;11.90;99.90;;;;;;5041542;28;20090;-64
2021/10/30 04:22:02;;;;;;;5.70;2.80;;;11.90;99.90;;;;;;5039506;28;20032;-64
2021/10/30 04:24:28;;;;;;;6.00;2.80;;;11.90;99.90;;;;;;5041712;28;20399;-65
2021/10/30 04:26:53;;;;;;;4.47;2.22;;;11.90;99.90;;;;;;5039915;28;20040;-65
2021/10/30 04:29:19;;;;;;;4.97;2.75;;;11.90;99.90;;;;;;5040906;28;20033;-63
2021/10/30 04:31:47;;;;;;;5.22;2.63;;;11.90;99.90;;;;;;5040498;28;20036;-63
2021/10/30 04:34:18;;;;;;;6.40;3.08;;;11.90;99.90;;;;;;5022791;28;20033;-63
2021/10/30 04:36:46;;;;;;;6.25;2.97;;;11.90;99.90;;;;;;5040481;28;20392;-62
2021/10/30 04:39:12;;;;;;;6.32;3.00;;;11.90;99.90;;;;;;5040097;28;20480;-63
2021/10/30 04:41:39;;;;;;;7.55;3.33;;;11.90;99.90;;;;;;5041130;28;20040;-63
2021/10/30 04:44:05;;;;;;;5.50;3.30;;;11.80;99.90;;;;;;5038683;28;20060;-62
2021/10/30 04:46:31;;;;;;;8.80;3.40;;;11.80;99.90;;;;;;5040863;28;20033;-63
2021/10/30 04:48:57;;;;;;;7.93;3.88;;;11.80;99.90;;;;;;5044138;28;20033;-65
2021/10/30 04:51:22;;;;;;;6.45;3.80;;;11.80;99.90;;;;;;5039244;28;20032;-61
2021/10/30 04:53:48;;;;;;;11.60;3.75;;;11.80;99.90;;;;;;5040416;28;20428;-63
2021/10/30 04:56:14;;;;;;;7.70;3.78;;;11.70;99.90;;;;;;5040857;28;20033;-64
2021/10/30 04:58:43;;;;;;;12.02;4.53;;;11.70;99.90;;;;;;5041785;28;20436;-62
2021/10/30 05:01:11;;;;;;;7.57;4.07;;;11.70;99.90;;;;;;5042147;28;20044;-63
2021/10/30 05:03:37;;;;;;;7.78;3.95;;;11.80;99.90;;;;;;5040494;28;20155;-63
2021/10/30 05:06:02;;;;;;;8.20;4.10;;;11.70;99.90;;;;;;5038735;28;20030;-63
2021/10/30 05:08:28;;;;;;;7.93;4.53;;;11.70;99.90;;;;;;5040863;28;20028;-66
2021/10/30 05:10:53;;;;;;;8.65;4.32;;;11.70;99.90;;;;;;5038693;28;20041;-64
2021/10/30 05:13:19;;;;;;;10.93;4.78;;;11.70;99.90;;;;;;5040522;28;20044;-63
2021/10/30 05:15:45;;;;;;;11.20;4.47;;;11.70;99.90;;;;;;5039559;28;20025;-62
2021/10/30 05:18:10;;;;;;;15.75;4.72;;;11.70;99.90;;;;;;5039694;28;20029;-64
2021/10/30 05:20:36;;;;;;;11.20;4.78;;;11.70;99.90;;;;;;5040018;28;20053;-61
2021/10/30 05:23:01;;;;;;;10.05;5.28;;;11.80;99.90;;;;;;5038561;28;20033;-62
2021/10/30 05:25:27;;;;;;;14.65;4.85;;;11.80;99.90;;;;;;5041484;28;20543;-62
2021/10/30 05:27:52;;;;;;;8.82;4.22;;;11.80;99.90;;;;;;5038159;28;20087;-63
2021/10/30 05:30:18;;;;;;;13.50;4.80;;;11.80;99.90;;;;;;5040156;28;20056;-64
2021/10/30 05:32:44;;;;;;;7.75;4.38;;;11.80;99.90;;;;;;5038667;28;20099;-63
2021/10/30 05:35:09;;;;;;;15.32;5.38;;;11.80;99.90;;;;;;5039417;28;20408;-64
2021/10/30 05:37:35;;;;;;;8.65;4.80;;;11.80;99.90;;;;;;5040253;28;20037;-63
2021/10/30 05:40:03;;;;;;;10.52;4.70;;;11.80;99.90;;;;;;5038243;28;20126;-63
2021/10/30 05:42:29;;;;;;;6.78;3.90;;;11.80;99.90;;;;;;5040907;28;20056;-65
2021/10/30 05:44:55;;;;;;;10.10;5.05;;;11.90;99.90;;;;;;5041720;28;20037;-63
2021/10/30 05:47:20;;;;;;;9.88;4.65;;;11.80;99.90;;;;;;5037635;28;20105;-62
2021/10/30 05:49:46;;;;;;;7.63;4.60;;;11.90;99.90;;;;;;5042505;28;20033;-62
2021/10/30 05:52:12;;;;;;;7.93;4.45;;;11.80;99.90;;;;;;5022098;28;20045;-62
2021/10/30 05:54:38;;;;;;;8.93;4.72;;;11.80;99.90;;;;;;5039194;28;20044;-63
2021/10/30 05:57:08;;;;;;;7.38;4.68;;;11.80;99.90;;;;;;5038240;28;20040;-64
2021/10/30 05:59:33;;;;;;;10.05;3.90;;;11.80;99.90;;;;;;5037283;28;20110;-64
2021/10/30 06:01:59;;;;;;;7.00;4.13;;;11.90;99.90;;;;;;5041139;28;20079;-63
2021/10/30 06:04:24;;;;;;;7.35;4.10;;;11.90;99.90;;;;;;5037173;28;20099;-63
2021/10/30 06:06:50;;;;;;;8.88;3.70;;;11.90;99.90;;;;;;5041402;28;20067;-62
2021/10/30 06:09:15;;;;;;;7.13;3.92;;;11.90;99.90;;;;;;5023998;28;20114;-63
2021/10/30 06:11:42;;;;;;;10.65;5.10;;;11.90;99.90;;;;;;5038693;28;20029;-64
2021/10/30 06:14:09;;;;;;;8.98;4.32;;;11.90;99.90;;;;;;5039711;28;20068;-65
2021/10/30 06:16:35;;;;;;;10.60;4.40;;;11.90;99.90;;;;;;5037900;28;20026;-64
2021/10/30 06:19:01;;;;;;;8.70;4.20;;;11.90;99.90;;;;;;5039955;28;20051;-62
2021/10/30 06:21:29;;;;;;;10.90;4.70;;;11.90;99.90;;;;;;5037457;28;20030;-63
2021/10/30 06:23:58;;;;;;;10.20;4.13;;;11.90;99.90;;;;;;5037223;28;20550;-64
2021/10/30 06:26:27;;;;;;;7.18;3.72;;;11.90;99.90;;;;;;5040726;28;20137;-65
2021/10/30 06:28:54;;;;;;;8.10;3.95;;;11.80;99.90;;;;;;5040751;28;20021;-63
2021/10/30 06:31:20;;;;;;;8.85;4.65;;;11.90;99.90;;;;;;5037170;28;20403;-65
2021/10/30 06:33:45;;;;;;;10.95;4.30;;;11.90;99.90;;;;;;5039766;28;20037;-64
2021/10/30 06:36:11;;;;;;;11.25;4.13;;;11.90;99.90;;;;;;5038584;28;20396;-63
2021/10/30 06:38:38;;;;;;;6.30;3.55;;;11.90;99.90;;;;;;5037872;28;20029;-63
2021/10/30 06:41:06;;;;;;;9.73;3.60;;;11.90;99.90;;;;;;5039908;28;20083;-63
2021/10/30 06:43:32;;;;;;;12.52;3.78;;;11.90;99.90;;;;;;5019897;28;20064;-65
2021/10/30 06:45:58;;;;;;;8.63;3.80;;;12.00;99.90;;;;;;5039295;28;20030;-63
2021/10/30 06:48:24;;;;;;;9.73;3.92;;;12.00;99.90;;;;;;5035786;28;20096;-66
2021/10/30 06:50:51;;;;;;;13.88;4.22;;;11.90;99.90;;;;;;5036294;28;20061;-64
2021/10/30 06:53:16;;;;;;;8.27;4.30;;;11.90;99.90;;;;;;5047389;28;20681;-63
2021/10/30 06:55:43;;;;;;;8.82;4.07;;;11.90;99.90;;;;;;5039470;28;20025;-65
2021/10/30 06:58:09;;;;;;;10.10;4.15;;;11.90;99.90;;;;;;5037194;28;20512;-63
2021/10/30 07:00:35;;;;;;;7.32;3.33;;;11.90;99.90;;;;;;5039149;28;20038;-65
2021/10/30 07:03:00;;;;;;;9.48;3.38;;;11.90;99.90;;;;;;5044356;28;20037;-64
2021/10/30 07:05:26;;;;;;;6.95;4.07;;;11.90;99.90;;;;;;5041856;28;20036;-65
2021/10/30 07:07:52;;;;;;;18.23;4.68;;;11.90;99.90;;;;;;5040786;28;20037;-64
2021/10/30 07:10:18;;;;;;;8.45;4.13;;;12.00;99.90;;;;;;5041850;28;20033;-64
2021/10/30 07:12:44;;;;;;;7.88;3.90;;;12.00;99.90;;;;;;5043835;28;20506;-63
2021/10/30 07:15:11;;;;;;;8.90;3.78;;;12.00;99.90;;;;;;5043347;28;20041;-64
2021/10/30 07:17:38;;;;;;;7.93;3.30;;;11.90;99.90;;;;;;5042463;28;20060;-63
2021/10/30 07:20:05;;;;;;;8.50;4.07;;;12.00;99.90;;;;;;5022392;28;20033;-62
2021/10/30 07:22:31;;;;;;;7.18;3.97;;;11.90;99.90;;;;;;5041856;28;20642;-65
2021/10/30 07:24:58;;;;;;;8.82;4.30;;;12.00;99.90;;;;;;5043959;28;20071;-62
2021/10/30 07:27:23;;;;;;;10.63;4.28;;;12.00;99.90;;;;;;5021625;28;20401;-63
2021/10/30 07:29:49;;;;;;;7.13;3.55;;;12.00;99.90;;;;;;5038753;28;20029;-67
2021/10/30 07:32:19;;;;;;;9.13;3.92;;;12.00;99.90;;;;;;5043760;28;20029;-64
2021/10/30 07:34:44;;;;;;;8.90;4.10;;;12.00;99.90;;;;;;5042672;28;20036;-63
2021/10/30 07:37:10;;;;;;;7.55;3.63;;;12.00;99.90;;;;;;5038378;28;20042;-62
2021/10/30 07:39:37;;;;;;;5.85;3.13;;;12.00;99.90;;;;;;5039263;28;20664;-62
2021/10/30 07:42:03;;;;;;;7.32;3.58;;;12.00;99.90;;;;;;5036093;28;20476;-63
2021/10/30 07:44:28;;;;;;;6.38;3.25;;;12.00;99.90;;;;;;5035633;28;20112;-67
2021/10/30 07:46:54;;;;;;;7.47;3.90;;;12.00;99.90;;;;;;5039637;28;20123;-63
2021/10/30 07:49:21;;;;;;;9.02;3.65;;;12.00;99.90;;;;;;5040032;28;20037;-64
2021/10/30 07:51:46;;;;;;;8.43;3.65;;;12.00;99.90;;;;;;5039380;28;20074;-63
2021/10/30 07:54:12;;;;;;;9.50;3.60;;;12.00;99.90;;;;;;5043554;28;20174;-63
2021/10/30 07:56:37;;;;;;;9.77;4.15;;;12.00;99.90;;;;;;5030354;28;20116;-64
2021/10/30 07:59:03;;;;;;;11.20;3.83;;;12.00;99.90;;;;;;5037301;28;20033;-63
2021/10/30 08:01:29;;;;;;;6.88;3.70;;;12.00;99.90;;;;;;5041322;28;20056;-62
2021/10/30 08:03:54;;;;;;;7.15;3.45;;;12.00;99.90;;;;;;5042485;28;20100;-62
2021/10/30 08:06:20;;;;;;;10.93;4.13;;;12.00;99.90;;;;;;5038568;28;20033;-64
2021/10/30 08:08:45;;;;;;;7.97;4.07;;;12.00;99.90;;;;;;5043529;28;20045;-64
2021/10/30 08:11:11;;;;;;;7.03;3.78;;;12.00;99.90;;;;;;5037347;28;20038;-64
2021/10/30 08:13:37;;;;;;;6.55;3.53;;;12.00;99.90;;;;;;5037793;28;20068;-62
2021/10/30 08:16:02;;;;;;;5.70;3.72;;;12.00;99.90;;;;;;5037846;28;20431;-63
2021/10/30 08:18:28;;;;;;;6.40;2.92;;;12.00;99.90;;;;;;5035933;28;20116;-63
2021/10/30 08:20:54;;;;;;;9.52;3.45;;;12.00;99.90;;;;;;5039898;28;20534;-64
2021/10/30 08:23:19;;;;;;;7.07;4.07;;;12.00;99.90;;;;;;5035156;28;20057;-64
2021/10/30 08:25:45;;;;;;;8.68;3.75;;;12.10;99.90;;;;;;5036193;28;20037;-62
2021/10/30 08:28:10;;;;;;;8.40;3.63;;;12.00;99.90;;;;;;5029003;28;20091;-63
2021/10/30 08:30:36;;;;;;;8.80;3.33;;;12.00;99.90;;;;;;5039982;28;20125;-62
2021/10/30 08:33:02;;;;;;;6.05;3.50;;;12.10;99.90;;;;;;5036319;28;20057;-64
2021/10/30 08:35:27;;;;;;;5.00;2.65;;;12.10;99.90;;;;;;5041147;28;20037;-62
2021/10/30 08:37:53;;;;;;;6.28;2.88;;;12.10;99.90;;;;;;5042217;28;20041;-63
2021/10/30 08:40:19;;;;;;;8.75;3.47;;;12.10;99.90;;;;;;5037300;28;20036;-62
2021/10/30 08:42:48;;;;;;;5.68;3.42;;;12.10;99.90;;;;;;5039560;28;20506;-62
2021/10/30 08:45:14;;;;;;;7.47;3.60;;;12.10;99.90;;;;;;5038027;28;20044;-61
2021/10/30 08:47:41;;;;;;;6.43;3.45;;;12.10;99.90;;;;;;5040396;28;20055;-62
2021/10/30 08:50:07;;;;;;;5.55;2.70;;;12.10;99.90;;;;;;5038119;28;20033;-63
2021/10/30 08:52:34;;;;;;;8.73;2.95;;;12.20;99.90;;;;;;5021147;28;20037;-61
2021/10/30 08:55:05;;;;;;;9.10;2.80;;;12.20;99.90;;;;;;5022927;28;20397;-63
2021/10/30 08:57:31;;;;;;;;;;;12.20;99.90;;;;;;5039916;28;20365;-66
2021/10/30 09:00:18;;;;;;;7.65;2.20;;;12.20;99.90;;;;;;5044969;28;19927;-62
2021/10/30 09:02:44;;;;;;;4.72;2.33;;;12.20;99.90;;;;;;5041309;28;20037;-62
2021/10/30 09:05:20;;;;;;;4.97;2.63;;;12.20;99.90;;;;;;5039239;28;20120;-62
2021/10/30 09:07:46;;;;;;;5.95;2.38;;;12.20;99.90;;;;;;5023478;28;20459;-62
2021/10/30 09:10:19;;;;;;;5.82;2.88;;;12.20;99.90;;;;;;5028545;28;20111;-61
2021/10/30 09:13:05;;;;;;;5.88;2.97;;;12.20;99.90;;;;;;5041824;28;20703;-63
2021/10/30 09:15:39;;;;;;;5.95;2.30;;;12.20;99.90;;;;;;5030179;28;20033;-67
2021/10/30 09:18:27;;;;;;;5.15;2.75;;;12.30;99.90;;;;;;5041588;28;20045;-61
2021/10/30 09:20:53;;;;;;;5.68;2.75;;;12.30;99.90;;;;;;5057449;28;20036;-63
2021/10/30 09:23:26;;;;;;;5.43;2.33;;;12.30;99.90;;;;;;5041988;28;20372;-62
2021/10/30 09:25:57;;;;;;;6.43;2.50;;;12.30;99.90;;;;;;5022518;28;20041;-63
2021/10/30 09:28:24;;;;;;;4.80;2.72;;;12.30;99.90;;;;;;5037473;28;20884;-61
2021/10/30 09:31:02;;;;;;;5.22;2.30;;;12.30;99.90;;;;;;5022509;28;20037;-62
2021/10/30 09:33:30;;;;;;;5.72;2.55;;;12.30;99.90;;;;;;5039409;28;20052;-62
2021/10/30 09:35:57;;;;;;;6.00;2.63;;;12.30;99.90;;;;;;5039956;28;20493;-62
2021/10/30 09:38:29;;;;;;;11.27;2.35;;;12.30;99.90;;;;;;5038446;28;20036;-63
2021/10/30 09:40:55;;;;;;;4.88;2.25;;;12.30;99.90;;;;;;5022246;28;20114;-63
2021/10/30 09:43:22;;;;;;;6.00;2.85;;;12.30;99.90;;;;;;5038571;28;20749;-62
2021/10/30 09:45:54;;;;;;;4.40;2.20;;;12.30;99.90;;;;;;5036163;28;20068;-61
2021/10/30 09:48:24;;;;;;;8.40;2.75;;;12.30;99.90;;;;;;5041305;28;20492;-63
2021/10/30 09:50:55;;;;;;;6.93;2.55;;;12.30;99.90;;;;;;5037011;28;20501;-61
2021/10/30 09:53:29;;;;;;;12.82;3.20;;;12.30;99.90;;;;;;5025157;28;20036;-62
2021/10/30 09:55:59;;;;;;;3.58;2.22;;;12.30;99.90;;;;;;5036491;28;20061;-62
2021/10/30 09:58:47;;;;;;;6.20;2.60;;;12.30;99.90;;;;;;5033950;28;20033;-63
2021/10/30 10:01:18;;;;;;;6.53;3.38;;;12.30;99.90;;;;;;5036304;28;20045;-61
2021/10/30 10:03:46;;;;;;;4.65;2.42;;;12.40;99.90;;;;;;5031988;28;20116;-62
2021/10/30 10:06:14;;;;;;;8.38;2.45;;;12.40;99.90;;;;;;5034381;28;20701;-62
2021/10/30 10:08:45;;;;;;;6.45;2.63;;;12.30;99.90;;;;;;5033125;28;20040;-62
2021/10/30 10:11:13;;;;;;;5.75;2.65;;;12.30;99.90;;;;;;5037500;28;20127;-63
2021/10/30 10:13:41;;;;;;;9.38;2.72;;;12.30;99.90;;;;;;5037519;28;20033;-62
2021/10/30 10:16:13;;;;;;;3.25;2.10;;;12.30;99.90;;;;;;5036395;28;20029;-63
2021/10/30 10:18:59;;;;;;;6.80;2.20;;;12.30;99.90;;;;;;5036296;28;20036;-62
2021/10/30 10:21:33;;;;;;;6.10;3.28;;;12.40;99.90;;;;;;5024572;28;20033;-63
2021/10/30 10:24:03;;;;;;;4.97;2.30;;;12.40;99.90;;;;;;5038285;28;20034;-62
2021/10/30 10:26:48;;;;;;;6.13;3.35;;;12.40;99.90;;;;;;5029762;28;20028;-61
2021/10/30 10:29:36;;;;;;;3.28;1.90;;;12.40;99.90;;;;;;5040178;28;20033;-62
2021/10/30 10:32:08;;;;;;;5.85;2.55;;;12.40;99.90;;;;;;5039201;28;20025;-60
2021/10/30 10:34:38;;;;;;;4.57;2.40;;;12.50;99.90;;;;;;5041719;28;20025;-65
2021/10/30 10:37:17;;;;;;;5.03;2.42;;;12.50;99.90;;;;;;5035747;28;20090;-62
2021/10/30 10:39:45;;;;;;;7.47;2.50;;;12.50;99.90;;;;;;5030884;28;20063;-64
2021/10/30 10:42:13;;;;;;;5.53;2.15;;;12.50;99.90;;;;;;5036817;28;20029;-64
2021/10/30 10:44:41;;;;;;;5.20;2.08;;;12.50;99.90;;;;;;5035341;28;20492;-61
2021/10/30 10:47:44;;;;;;;4.70;2.03;;;12.50;99.90;;;;;;5035231;28;20037;-61
2021/10/30 10:50:34;;;;;;;4.82;2.65;;;12.60;99.90;;;;;;5032571;28;20075;-63
2021/10/30 10:53:04;;;;;;;3.70;2.03;;;12.60;99.90;;;;;;5043505;28;20041;-60
2021/10/30 10:55:32;;;;;;;4.07;2.30;;;12.60;99.90;;;;;;5037500;28;20045;-63
2021/10/30 10:58:06;;;;;;;4.47;2.20;;;12.70;99.90;;;;;;5041680;28;20127;-62
2021/10/30 11:00:32;;;;;;;9.45;2.40;;;12.70;99.90;;;;;;5037053;28;20124;-59
2021/10/30 11:02:59;;;;;;;6.63;2.22;;;12.80;99.90;;;;;;5025380;28;20083;-61
2021/10/30 11:05:33;;;;;;;4.10;2.33;;;12.80;99.90;;;;;;5036037;28;20045;-61
2021/10/30 11:08:20;;;;;;;3.55;1.70;;;12.80;99.90;;;;;;5039815;28;20033;-61
2021/10/30 11:10:46;;;;;;;6.30;2.47;;;12.80;99.90;;;;;;5018044;28;20041;-61
2021/10/30 11:13:18;;;;;;;5.25;1.70;;;12.80;99.90;;;;;;5040896;28;20142;-61
2021/10/30 11:15:52;;;;;;;5.07;2.33;;;12.90;99.90;;;;;;5039918;28;20021;-63
2021/10/30 11:18:45;;;;;;;3.72;1.55;;;12.90;99.90;;;;;;5033661;28;20034;-62
2021/10/30 11:21:22;;;;;;;7.20;2.10;;;12.90;99.90;;;;;;5038806;28;20075;-62
2021/10/30 11:23:54;;;;;;;4.25;1.70;;;12.90;99.90;;;;;;5037298;28;20041;-61
2021/10/30 11:26:34;;;;;;;4.53;2.10;;;13.00;99.90;;;;;;5039812;28;20072;-60
2021/10/30 11:29:03;;;;;;;4.88;1.50;;;13.00;99.90;;;;;;5038014;28;20520;-62
2021/10/30 11:31:32;;;;;;;4.07;1.67;;;12.90;99.90;;;;;;5041586;28;20044;-61
2021/10/30 11:34:01;;;;;;;3.75;1.60;;;13.00;99.90;;;;;;5036886;28;20030;-62
2021/10/30 11:36:27;;;;;;;5.80;1.98;;;13.10;99.90;;;;;;5028864;28;20121;-62
2021/10/30 11:38:56;;;;;;;3.78;1.58;;;13.10;99.90;;;;;;5039432;28;20041;-61
2021/10/30 11:41:33;;;;;;;3.15;1.95;;;13.10;99.90;;;;;;5037975;28;20120;-62
2021/10/30 11:44:08;;;;;;;5.38;2.10;;;13.10;99.90;;;;;;5035807;28;20806;-60
2021/10/30 11:46:55;;;;;;;3.88;1.63;;;13.10;99.90;;;;;;5031589;28;20504;-60
2021/10/30 11:49:29;;;;;;;3.60;1.52;;;13.00;99.90;;;;;;5037189;28;20086;-61
2021/10/30 11:52:02;;;;;;;4.90;1.60;;;13.00;99.90;;;;;;5035142;28;20145;-62
2021/10/30 11:54:28;;;;;;;4.07;1.65;;;13.00;99.90;;;;;;5039854;28;20039;-61
2021/10/30 11:56:53;;;;;;;3.78;1.80;;;13.00;99.90;;;;;;5033534;28;20396;-60
2021/10/30 11:59:19;;;;;;;3.20;1.63;;;13.10;99.90;;;;;;5036172;28;20683;-63
2021/10/30 12:01:49;;;;;;;3.95;1.40;;;13.10;99.90;;;;;;5029490;28;20043;-61
2021/10/30 12:04:29;;;;;;;3.08;1.40;;;13.10;99.90;;;;;;5027357;28;20036;-62
2021/10/30 12:07:05;;;;;;;2.28;1.42;;;13.10;99.90;;;;;;5038794;28;20388;-61
2021/10/30 12:09:36;;;;;;;4.60;2.00;;;13.10;99.90;;;;;;5041842;28;20032;-60
2021/10/30 12:12:04;;;;;;;7.88;1.48;;;13.10;99.90;;;;;;5034120;28;20220;-62
2021/10/30 12:14:32;;;;;;;2.58;1.25;;;13.10;99.90;;;;;;5036108;28;20083;-60
2021/10/30 12:17:13;;;;;;;3.20;1.75;;;13.10;99.90;;;;;;5037622;28;20033;-60
2021/10/30 12:19:41;;;;;;;5.45;1.70;;;13.00;99.90;;;;;;5035822;28;20041;-62
2021/10/30 12:22:07;;;;;;;3.75;1.40;;;13.10;99.90;;;;;;5035699;28;20056;-62
2021/10/30 12:24:33;;;;;;;2.88;1.80;;;13.20;99.90;;;;;;5035390;28;20827;-62
2021/10/30 12:27:04;;;;;;;4.40;1.73;;;13.20;99.90;;;;;;5033185;28;20132;-62
2021/10/30 12:29:31;;;;;;;2.38;1.40;;;13.30;99.90;;;;;;5029603;28;20043;-62
2021/10/30 12:32:12;;;;;;;2.88;1.25;;;13.30;99.90;;;;;;5022786;28;20451;-60
2021/10/30 12:34:58;;;;;;;3.42;1.35;;;13.40;99.90;;;;;;5028752;28;20466;-60
2021/10/30 12:37:28;;;;;;;4.45;1.30;;;13.60;99.90;;;;;;5029757;28;20044;-60
2021/10/30 12:40:07;;;;;;;1.53;0.90;;;13.60;99.90;;;;;;5029962;28;20064;-60
2021/10/30 12:42:34;;;;;;;2.95;1.20;;;13.60;99.90;;;;;;5032815;28;20040;-66
2021/10/30 12:45:00;;;;;;;2.30;1.35;;;13.60;99.90;;;;;;5032425;28;20037;-61
2021/10/30 12:47:27;;;;;;;2.20;1.23;;;13.60;99.90;;;;;;5031258;28;20553;-61
2021/10/30 12:50:02;;;;;;;2.28;1.20;;;13.50;99.90;;;;;;5024970;28;20049;-61